createdAt,value
2018-09-28T00:01:28.207Z,61.53
2018-09-28T00:07:32.850Z,61.15
2018-09-28T00:13:37.752Z,61.50
2018-09-28T00:19:42.307Z,61.70
2018-09-28T00:25:46.891Z,61.74
2018-09-28T00:31:51.750Z,61.82
2018-09-28T00:37:56.329Z,62.10
2018-09-28T00:44:00.935Z,63.04
2018-09-28T00:50:06.729Z,63.78
2018-09-28T00:56:11.333Z,64.10
2018-09-28T01:02:15.913Z,65.22
2018-09-28T01:08:20.515Z,66.11
2018-09-28T01:14:25.408Z,66.57
2018-09-28T01:20:29.997Z,67.32
2018-09-28T01:26:34.555Z,67.39
2018-09-28T01:32:39.122Z,67.74
2018-09-28T01:38:43.703Z,67.30
2018-09-28T01:44:48.315Z,67.56
2018-09-28T01:50:53.774Z,67.36
2018-09-28T01:56:58.360Z,67.55
2018-09-28T02:03:03.292Z,66.92
2018-09-28T02:09:08.741Z,68.21
2018-09-28T02:15:13.310Z,68.18
2018-09-28T02:21:17.851Z,69.23
2018-09-28T02:27:22.464Z,69.50
2018-09-28T02:33:27.013Z,71.82
2018-09-28T02:39:31.626Z,72.26
2018-09-28T02:45:36.589Z,72.38
2018-09-28T02:51:41.190Z,72.82
2018-09-28T02:57:45.784Z,72.94
2018-09-28T03:03:50.392Z,72.79
2018-09-28T03:09:54.951Z,72.24
2018-09-28T03:15:59.516Z,72.46
2018-09-28T03:22:04.410Z,72.22
2018-09-28T03:28:08.983Z,72.82
2018-09-28T03:34:13.627Z,72.82
2018-09-28T03:40:18.229Z,72.64
2018-09-28T03:46:22.855Z,72.70
2018-09-28T03:52:27.822Z,72.98
2018-09-28T03:58:32.440Z,73.44
2018-09-28T04:04:37.543Z,73.80
2018-09-28T04:10:42.591Z,74.37
2018-09-28T04:16:47.229Z,74.07
2018-09-28T04:22:52.519Z,74.39
2018-09-28T04:28:57.118Z,74.29
2018-09-28T04:35:02.041Z,73.38
2018-09-28T04:41:06.697Z,72.59
2018-09-28T04:47:11.284Z,73.05
2018-09-28T04:53:16.129Z,73.19
2018-09-28T04:59:20.724Z,74.10
2018-09-28T05:05:25.625Z,74.55
2018-09-28T05:11:30.541Z,74.33
2018-09-28T05:17:35.121Z,73.92
2018-09-28T05:23:39.701Z,74.31
2018-09-28T05:29:44.245Z,73.22
2018-09-28T05:35:49.163Z,73.88
2018-09-28T05:41:54.087Z,74.19
2018-09-28T05:47:58.675Z,73.61
2018-09-28T05:54:03.553Z,72.12
2018-09-28T06:00:13.291Z,72.82
2018-09-28T06:06:17.909Z,74.08
2018-09-28T06:12:22.509Z,74.70
2018-09-28T06:18:27.101Z,74.99
2018-09-28T06:24:31.717Z,74.55
2018-09-28T06:30:36.298Z,74.56
2018-09-28T06:36:41.204Z,73.13
2018-09-28T06:42:45.802Z,74.71
2018-09-28T06:48:50.427Z,75.83
2018-09-28T06:54:55.394Z,76.33
2018-09-28T07:00:59.987Z,76.30
2018-09-28T07:07:04.585Z,76.19
2018-09-28T07:13:09.169Z,77.01
2018-09-28T07:19:14.452Z,75.69
2018-09-28T07:25:19.098Z,75.98
2018-09-28T07:31:23.705Z,77.19
2018-09-28T07:37:28.643Z,79.30
2018-09-28T07:43:33.226Z,81.07
2018-09-28T07:49:37.841Z,85.54
2018-09-28T07:55:42.478Z,87.57
2018-09-28T08:01:47.329Z,86.95
2018-09-28T08:07:52.552Z,84.26
2018-09-28T08:13:57.133Z,83.07
2018-09-28T08:20:01.781Z,81.04
2018-09-28T08:26:06.586Z,80.98
2018-09-28T08:32:11.257Z,81.15
2018-09-28T08:38:15.845Z,82.29
2018-09-28T08:44:20.429Z,82.80
2018-09-28T08:50:25.388Z,80.08
2018-09-28T08:56:29.976Z,74.04
2018-09-28T09:02:34.937Z,72.48
2018-09-28T09:08:39.545Z,70.16
2018-09-28T09:14:44.429Z,67.10
2018-09-28T09:20:49.344Z,66.54
2018-09-28T09:26:53.971Z,63.43
2018-09-28T09:32:58.596Z,59.87
2018-09-28T09:39:04.025Z,47.29
2018-09-28T09:45:09.089Z,47.53
2018-09-28T09:51:13.701Z,48.42
2018-09-28T09:57:18.777Z,47.97
2018-09-28T10:03:28.568Z,51.57
2018-09-28T10:09:33.227Z,54.06
2018-09-28T10:15:37.767Z,54.02
2018-09-28T10:21:42.343Z,55.31
2018-09-28T10:27:47.044Z,54.10
2018-09-28T10:33:51.590Z,52.33
2018-09-28T10:39:56.181Z,51.33
2018-09-28T10:46:00.790Z,47.91
2018-09-28T10:52:05.556Z,45.94
2018-09-28T10:58:10.092Z,41.99
2018-09-28T11:04:15.101Z,42.43
2018-09-28T11:10:19.729Z,39.89
2018-09-28T11:16:24.291Z,41.51
2018-09-28T11:22:28.860Z,42.26
2018-09-28T11:28:33.835Z,44.53
2018-09-28T11:34:38.435Z,45.20
2018-09-28T11:40:43.300Z,45.32
2018-09-28T11:46:47.917Z,45.33
2018-09-28T11:52:52.662Z,43.21
2018-09-28T11:58:57.255Z,44.07
2018-09-28T12:05:02.376Z,44.22
2018-09-28T12:11:07.057Z,44.34
2018-09-28T12:17:11.612Z,43.42
2018-09-28T12:23:16.251Z,43.90
2018-09-28T12:29:20.842Z,41.87
2018-09-28T12:35:25.465Z,43.08
2018-09-28T12:41:30.028Z,40.14
2018-09-28T12:47:34.625Z,40.26
2018-09-28T12:53:39.223Z,42.16
2018-09-28T12:59:43.824Z,41.24
2018-09-28T13:05:48.452Z,40.30
2018-09-28T13:11:53.068Z,40.75
2018-09-28T13:17:57.657Z,39.17
2018-09-28T13:24:02.316Z,35.01
2018-09-28T13:30:07.425Z,38.12
2018-09-28T13:36:11.978Z,38.15
2018-09-28T13:42:16.599Z,38.67
2018-09-28T13:48:21.218Z,39.98
2018-09-28T13:54:25.840Z,41.37
2018-09-28T14:00:30.555Z,43.04
2018-09-28T14:06:35.224Z,43.86
2018-09-28T14:12:39.830Z,42.58
2018-09-28T14:18:44.416Z,42.78
2018-09-28T14:24:49.088Z,39.73
2018-09-28T14:30:53.656Z,34.50
2018-09-28T14:36:58.666Z,34.85
2018-09-28T14:43:03.262Z,31.39
2018-09-28T14:49:08.273Z,33.70
2018-09-28T14:55:12.798Z,33.38
2018-09-28T15:01:17.533Z,34.37
2018-09-28T15:07:22.011Z,31.93
2018-09-28T15:13:26.627Z,29.53
2018-09-28T15:19:31.204Z,30.54
2018-09-28T15:25:36.139Z,31.49
2018-09-28T15:31:40.792Z,33.43
2018-09-28T15:37:45.417Z,35.74
2018-09-28T15:43:50.027Z,37.06
2018-09-28T15:49:54.671Z,38.87
2018-09-28T15:55:59.270Z,41.07
2018-09-28T16:02:03.881Z,41.48
2018-09-28T16:08:08.487Z,41.85
2018-09-28T16:14:13.435Z,42.26
2018-09-28T16:20:18.663Z,43.43
2018-09-28T16:26:23.249Z,42.25
2018-09-28T16:32:27.839Z,40.22
2018-09-28T16:38:32.746Z,42.85
2018-09-28T16:44:37.304Z,46.00
2018-09-28T16:50:41.955Z,48.78
2018-09-28T16:56:46.770Z,50.17
2018-09-28T17:02:51.371Z,51.25
2018-09-28T17:08:55.945Z,52.69
2018-09-28T17:15:00.599Z,54.14
2018-09-28T17:21:05.186Z,53.72
2018-09-28T17:27:09.847Z,54.79
2018-09-28T17:33:14.442Z,54.74
2018-09-28T17:39:19.069Z,55.08
2018-09-28T17:45:23.777Z,56.39
2018-09-28T17:51:28.692Z,55.66
2018-09-28T17:57:33.246Z,56.25
2018-09-28T18:03:37.817Z,56.79
2018-09-28T18:09:42.401Z,57.21
2018-09-28T18:15:46.965Z,58.17
2018-09-28T18:21:51.581Z,58.49
2018-09-28T18:27:56.215Z,59.40
2018-09-28T18:34:00.805Z,59.68
2018-09-28T18:40:05.882Z,60.04
2018-09-28T18:46:10.501Z,61.46
2018-09-28T18:52:15.123Z,61.22
2018-09-28T18:58:20.052Z,61.31
2018-09-28T19:04:24.655Z,62.03
2018-09-28T19:10:29.243Z,61.90
2018-09-28T19:16:33.889Z,62.01
2018-09-28T19:22:38.477Z,62.42
2018-09-28T19:28:43.047Z,62.92
2018-09-28T19:34:47.694Z,63.14
2018-09-28T19:40:52.340Z,63.45
2018-09-28T19:46:56.967Z,64.24
2018-09-28T19:53:02.007Z,64.80
2018-09-28T19:59:06.941Z,65.28
2018-09-28T20:05:11.567Z,65.32
2018-09-28T20:11:16.162Z,65.99
2018-09-28T20:17:20.749Z,66.99
2018-09-28T20:23:25.741Z,66.85
2018-09-28T20:29:30.612Z,66.78
2018-09-28T20:35:35.201Z,66.65
2018-09-28T20:41:39.827Z,67.29
2018-09-28T20:47:44.769Z,67.35
2018-09-28T20:53:49.333Z,67.72
2018-09-28T20:59:53.897Z,68.04
2018-09-28T21:05:58.898Z,69.07
2018-09-28T21:12:03.461Z,68.55
2018-09-28T21:18:08.033Z,69.01
2018-09-28T21:24:12.677Z,69.26
2018-09-28T21:30:17.285Z,69.26
2018-09-28T21:36:21.885Z,69.62
2018-09-28T21:42:26.539Z,70.43
2018-09-28T21:48:31.157Z,70.52
2018-09-28T21:54:36.121Z,70.30
2018-09-28T22:00:40.769Z,70.60
2018-09-28T22:06:45.366Z,71.02
2018-09-28T22:12:50.222Z,70.83
2018-09-28T22:18:54.849Z,70.68
2018-09-28T22:24:59.413Z,70.08
2018-09-28T22:31:04.037Z,71.36
2018-09-28T22:37:08.629Z,71.81
2018-09-28T22:43:13.169Z,71.95
2018-09-28T22:49:18.116Z,73.11
2018-09-28T22:55:23.034Z,73.36
2018-09-28T23:01:27.590Z,73.70
2018-09-28T23:07:32.174Z,73.19
2018-09-28T23:13:36.762Z,74.07
2018-09-28T23:19:41.366Z,74.13
2018-09-28T23:25:45.947Z,74.79
2018-09-28T23:31:50.533Z,75.12
2018-09-28T23:37:55.847Z,75.42
2018-09-28T23:44:00.438Z,75.77
2018-09-28T23:50:05.182Z,75.59
2018-09-28T23:56:09.785Z,75.85
